sensor_id;sensor_type;location;lat;lon;timestamp;P1;durP1;ratioP1;P2;durP2;ratioP2
31872;SDS011;22407;42.820;23.374;2024-01-15T00:01:33;35.13;;;14.70;;
31872;SDS011;22407;42.820;23.374;2024-01-15T00:03:59;38.73;;;15.43;;
31872;SDS011;22407;42.820;23.374;2024-01-15T00:06:24;45.42;;;16.38;;
31872;SDS011;22407;42.820;23.374;2024-01-15T00:08:52;47.30;;;19.70;;
31872;SDS011;22407;42.820;23.374;2024-01-15T00:11:17;72.23;;;27.90;;
31872;SDS011;22407;42.820;23.374;2024-01-15T00:13:43;54.53;;;23.13;;
31872;SDS011;22407;42.820;23.374;2024-01-15T00:16:08;53.42;;;20.48;;
31872;SDS011;22407;42.820;23.374;2024-01-15T00:18:34;57.03;;;23.00;;
31872;SDS011;22407;42.820;23.374;2024-01-15T00:20:59;61.77;;;24.33;;
31872;SDS011;22407;42.820;23.374;2024-01-15T00:23:25;59.20;;;25.10;;
31872;SDS011;22407;42.820;23.374;2024-01-15T00:25:50;62.78;;;26.13;;
31872;SDS011;22407;42.820;23.374;2024-01-15T00:28:16;63.00;;;25.80;;
31872;SDS011;22407;42.820;23.374;2024-01-15T00:30:42;47.97;;;19.23;;
31872;SDS011;22407;42.820;23.374;2024-01-15T00:33:07;49.37;;;20.73;;
31872;SDS011;22407;42.820;23.374;2024-01-15T00:35:33;55.00;;;20.40;;
31872;SDS011;22407;42.820;23.374;2024-01-15T00:37:59;76.50;;;29.52;;
31872;SDS011;22407;42.820;23.374;2024-01-15T00:40:24;95.97;;;32.30;;
31872;SDS011;22407;42.820;23.374;2024-01-15T00:42:50;61.88;;;23.20;;
31872;SDS011;22407;42.820;23.374;2024-01-15T00:45:16;67.80;;;25.20;;
31872;SDS011;22407;42.820;23.374;2024-01-15T00:47:42;46.53;;;17.27;;
31872;SDS011;22407;42.820;23.374;2024-01-15T00:50:07;48.67;;;18.17;;
31872;SDS011;22407;42.820;23.374;2024-01-15T00:52:33;53.53;;;21.63;;
31872;SDS011;22407;42.820;23.374;2024-01-15T00:54:59;53.80;;;22.17;;
31872;SDS011;22407;42.820;23.374;2024-01-15T00:57:24;42.27;;;16.70;;
31872;SDS011;22407;42.820;23.374;2024-01-15T00:59:50;38.47;;;16.10;;
31872;SDS011;22407;42.820;23.374;2024-01-15T01:02:15;40.27;;;16.30;;
31872;SDS011;22407;42.820;23.374;2024-01-15T01:04:41;45.47;;;17.90;;
31872;SDS011;22407;42.820;23.374;2024-01-15T01:07:06;47.05;;;20.52;;
31872;SDS011;22407;42.820;23.374;2024-01-15T01:09:32;49.38;;;18.67;;
31872;SDS011;22407;42.820;23.374;2024-01-15T01:11:58;44.63;;;18.90;;
31872;SDS011;22407;42.820;23.374;2024-01-15T01:14:23;48.40;;;18.45;;
31872;SDS011;22407;42.820;23.374;2024-01-15T01:16:49;46.33;;;18.53;;
31872;SDS011;22407;42.820;23.374;2024-01-15T01:19:14;39.55;;;15.55;;
31872;SDS011;22407;42.820;23.374;2024-01-15T01:21:40;42.15;;;15.43;;
31872;SDS011;22407;42.820;23.374;2024-01-15T01:24:05;51.30;;;19.03;;
31872;SDS011;22407;42.820;23.374;2024-01-15T01:26:31;51.93;;;18.37;;
31872;SDS011;22407;42.820;23.374;2024-01-15T01:28:57;53.40;;;20.40;;
31872;SDS011;22407;42.820;23.374;2024-01-15T01:31:23;57.97;;;22.17;;
31872;SDS011;22407;42.820;23.374;2024-01-15T01:33:49;48.75;;;18.90;;
31872;SDS011;22407;42.820;23.374;2024-01-15T01:36:14;65.57;;;24.70;;
31872;SDS011;22407;42.820;23.374;2024-01-15T01:38:40;61.42;;;23.23;;
31872;SDS011;22407;42.820;23.374;2024-01-15T01:41:06;52.22;;;19.50;;
31872;SDS011;22407;42.820;23.374;2024-01-15T01:43:32;38.60;;;16.07;;
31872;SDS011;22407;42.820;23.374;2024-01-15T01:45:58;45.50;;;18.63;;
31872;SDS011;22407;42.820;23.374;2024-01-15T01:48:26;53.78;;;21.65;;
31872;SDS011;22407;42.820;23.374;2024-01-15T01:50:56;52.90;;;21.27;;
31872;SDS011;22407;42.820;23.374;2024-01-15T01:53:23;50.30;;;20.15;;
31872;SDS011;22407;42.820;23.374;2024-01-15T01:55:51;47.75;;;18.52;;
31872;SDS011;22407;42.820;23.374;2024-01-15T01:58:18;43.83;;;18.17;;
31872;SDS011;22407;42.820;23.374;2024-01-15T02:00:45;46.13;;;18.23;;
31872;SDS011;22407;42.820;23.374;2024-01-15T02:03:12;46.33;;;17.80;;
31872;SDS011;22407;42.820;23.374;2024-01-15T02:05:38;42.80;;;17.50;;
31872;SDS011;22407;42.820;23.374;2024-01-15T02:08:05;40.38;;;16.65;;
31872;SDS011;22407;42.820;23.374;2024-01-15T02:10:31;39.65;;;15.43;;
31872;SDS011;22407;42.820;23.374;2024-01-15T02:12:57;41.10;;;15.63;;
31872;SDS011;22407;42.820;23.374;2024-01-15T02:15:23;39.92;;;15.18;;
31872;SDS011;22407;42.820;23.374;2024-01-15T02:18:05;42.47;;;16.63;;
31872;SDS011;22407;42.820;23.374;2024-01-15T02:20:33;42.58;;;15.35;;
31872;SDS011;22407;42.820;23.374;2024-01-15T02:25:35;50.92;;;20.38;;
31872;SDS011;22407;42.820;23.374;2024-01-15T02:28:01;53.50;;;22.17;;
31872;SDS011;22407;42.820;23.374;2024-01-15T02:30:28;41.15;;;16.52;;
31872;SDS011;22407;42.820;23.374;2024-01-15T02:32:55;55.22;;;23.42;;
31872;SDS011;22407;42.820;23.374;2024-01-15T02:35:20;51.50;;;20.80;;
31872;SDS011;22407;42.820;23.374;2024-01-15T02:37:45;43.57;;;17.30;;
31872;SDS011;22407;42.820;23.374;2024-01-15T02:40:11;42.47;;;16.83;;
31872;SDS011;22407;42.820;23.374;2024-01-15T02:42:37;48.97;;;18.23;;
31872;SDS011;22407;42.820;23.374;2024-01-15T02:45:03;56.47;;;23.57;;
31872;SDS011;22407;42.820;23.374;2024-01-15T02:47:29;61.15;;;23.27;;
31872;SDS011;22407;42.820;23.374;2024-01-15T02:49:54;79.87;;;31.07;;
31872;SDS011;22407;42.820;23.374;2024-01-15T02:52:20;77.43;;;30.27;;
31872;SDS011;22407;42.820;23.374;2024-01-15T02:54:45;75.77;;;28.43;;
31872;SDS011;22407;42.820;23.374;2024-01-15T02:57:11;59.67;;;23.23;;
31872;SDS011;22407;42.820;23.374;2024-01-15T02:59:36;74.25;;;27.00;;
31872;SDS011;22407;42.820;23.374;2024-01-15T03:02:02;61.03;;;23.33;;
31872;SDS011;22407;42.820;23.374;2024-01-15T03:04:28;48.90;;;18.35;;
31872;SDS011;22407;42.820;23.374;2024-01-15T03:06:53;48.53;;;18.90;;
31872;SDS011;22407;42.820;23.374;2024-01-15T03:09:18;56.33;;;23.80;;
31872;SDS011;22407;42.820;23.374;2024-01-15T03:11:44;56.10;;;23.00;;
31872;SDS011;22407;42.820;23.374;2024-01-15T03:14:09;60.05;;;23.60;;
31872;SDS011;22407;42.820;23.374;2024-01-15T03:16:36;92.55;;;33.85;;
31872;SDS011;22407;42.820;23.374;2024-01-15T03:19:01;111.18;;;37.95;;
31872;SDS011;22407;42.820;23.374;2024-01-15T03:21:27;70.93;;;28.60;;
31872;SDS011;22407;42.820;23.374;2024-01-15T03:23:52;90.93;;;33.53;;
31872;SDS011;22407;42.820;23.374;2024-01-15T03:26:17;167.57;;;60.70;;
31872;SDS011;22407;42.820;23.374;2024-01-15T03:28:43;101.10;;;37.70;;
31872;SDS011;22407;42.820;23.374;2024-01-15T03:31:09;67.87;;;27.37;;
31872;SDS011;22407;42.820;23.374;2024-01-15T03:33:34;73.80;;;27.98;;
31872;SDS011;22407;42.820;23.374;2024-01-15T03:36:00;71.60;;;26.83;;
31872;SDS011;22407;42.820;23.374;2024-01-15T03:38:27;77.07;;;28.20;;
31872;SDS011;22407;42.820;23.374;2024-01-15T03:40:53;77.80;;;28.47;;
31872;SDS011;22407;42.820;23.374;2024-01-15T03:43:19;71.40;;;26.70;;
31872;SDS011;22407;42.820;23.374;2024-01-15T03:45:45;69.23;;;28.77;;
31872;SDS011;22407;42.820;23.374;2024-01-15T03:48:11;71.20;;;25.38;;
31872;SDS011;22407;42.820;23.374;2024-01-15T03:50:36;75.20;;;28.60;;
31872;SDS011;22407;42.820;23.374;2024-01-15T03:53:02;70.95;;;26.15;;
31872;SDS011;22407;42.820;23.374;2024-01-15T03:55:28;63.85;;;25.73;;
31872;SDS011;22407;42.820;23.374;2024-01-15T03:57:53;67.27;;;24.73;;
31872;SDS011;22407;42.820;23.374;2024-01-15T04:00:19;57.93;;;21.93;;
31872;SDS011;22407;42.820;23.374;2024-01-15T04:02:45;61.13;;;22.65;;
31872;SDS011;22407;42.820;23.374;2024-01-15T04:05:10;71.80;;;29.10;;
31872;SDS011;22407;42.820;23.374;2024-01-15T04:07:36;71.75;;;29.67;;
31872;SDS011;22407;42.820;23.374;2024-01-15T04:10:01;71.70;;;27.45;;
31872;SDS011;22407;42.820;23.374;2024-01-15T04:12:27;73.60;;;31.25;;
31872;SDS011;22407;42.820;23.374;2024-01-15T04:14:53;65.67;;;27.03;;
31872;SDS011;22407;42.820;23.374;2024-01-15T04:17:18;60.97;;;26.30;;
31872;SDS011;22407;42.820;23.374;2024-01-15T04:19:44;68.78;;;27.73;;
31872;SDS011;22407;42.820;23.374;2024-01-15T04:22:10;88.00;;;30.10;;
31872;SDS011;22407;42.820;23.374;2024-01-15T04:24:35;95.43;;;31.10;;
31872;SDS011;22407;42.820;23.374;2024-01-15T04:27:01;66.68;;;24.65;;
31872;SDS011;22407;42.820;23.374;2024-01-15T04:29:26;61.17;;;24.40;;
31872;SDS011;22407;42.820;23.374;2024-01-15T04:31:52;66.67;;;23.97;;
31872;SDS011;22407;42.820;23.374;2024-01-15T04:34:18;89.43;;;31.10;;
31872;SDS011;22407;42.820;23.374;2024-01-15T04:36:44;94.38;;;34.47;;
31872;SDS011;22407;42.820;23.374;2024-01-15T04:39:09;97.90;;;37.30;;
31872;SDS011;22407;42.820;23.374;2024-01-15T04:41:36;88.55;;;35.70;;
31872;SDS011;22407;42.820;23.374;2024-01-15T04:44:02;104.10;;;39.80;;
31872;SDS011;22407;42.820;23.374;2024-01-15T04:46:28;130.00;;;48.83;;
31872;SDS011;22407;42.820;23.374;2024-01-15T04:48:53;156.80;;;59.00;;
31872;SDS011;22407;42.820;23.374;2024-01-15T04:51:19;158.90;;;59.47;;
31872;SDS011;22407;42.820;23.374;2024-01-15T04:53:44;163.57;;;62.50;;
31872;SDS011;22407;42.820;23.374;2024-01-15T04:56:10;143.63;;;52.87;;
31872;SDS011;22407;42.820;23.374;2024-01-15T04:58:35;157.13;;;60.17;;
31872;SDS011;22407;42.820;23.374;2024-01-15T05:01:01;143.52;;;55.90;;
31872;SDS011;22407;42.820;23.374;2024-01-15T05:03:27;134.20;;;52.00;;
31872;SDS011;22407;42.820;23.374;2024-01-15T05:05:52;124.30;;;49.67;;
31872;SDS011;22407;42.820;23.374;2024-01-15T05:08:18;125.00;;;49.70;;
31872;SDS011;22407;42.820;23.374;2024-01-15T05:10:43;130.10;;;51.13;;
31872;SDS011;22407;42.820;23.374;2024-01-15T05:13:09;115.95;;;47.30;;
31872;SDS011;22407;42.820;23.374;2024-01-15T05:15:34;129.07;;;49.07;;
31872;SDS011;22407;42.820;23.374;2024-01-15T05:18:00;128.43;;;50.37;;
31872;SDS011;22407;42.820;23.374;2024-01-15T05:20:25;132.38;;;50.63;;
31872;SDS011;22407;42.820;23.374;2024-01-15T05:22:51;126.23;;;50.13;;
31872;SDS011;22407;42.820;23.374;2024-01-15T05:25:16;126.37;;;48.77;;
31872;SDS011;22407;42.820;23.374;2024-01-15T05:27:42;127.10;;;49.53;;
31872;SDS011;22407;42.820;23.374;2024-01-15T05:30:08;133.60;;;50.40;;
31872;SDS011;22407;42.820;23.374;2024-01-15T05:32:33;109.15;;;44.38;;
31872;SDS011;22407;42.820;23.374;2024-01-15T05:34:59;103.17;;;40.20;;
31872;SDS011;22407;42.820;23.374;2024-01-15T05:37:24;106.33;;;42.57;;
31872;SDS011;22407;42.820;23.374;2024-01-15T05:39:50;92.97;;;38.13;;
31872;SDS011;22407;42.820;23.374;2024-01-15T05:42:15;93.40;;;37.70;;
31872;SDS011;22407;42.820;23.374;2024-01-15T05:44:41;95.73;;;40.33;;
31872;SDS011;22407;42.820;23.374;2024-01-15T05:47:07;97.20;;;39.33;;
31872;SDS011;22407;42.820;23.374;2024-01-15T05:49:32;113.88;;;41.28;;
31872;SDS011;22407;42.820;23.374;2024-01-15T05:51:58;107.40;;;43.13;;
31872;SDS011;22407;42.820;23.374;2024-01-15T05:54:23;119.60;;;46.70;;
31872;SDS011;22407;42.820;23.374;2024-01-15T05:56:49;113.20;;;45.40;;
31872;SDS011;22407;42.820;23.374;2024-01-15T05:59:15;125.32;;;50.78;;
31872;SDS011;22407;42.820;23.374;2024-01-15T06:01:40;105.57;;;42.80;;
31872;SDS011;22407;42.820;23.374;2024-01-15T06:04:06;118.47;;;47.40;;
31872;SDS011;22407;42.820;23.374;2024-01-15T06:06:32;151.27;;;54.10;;
31872;SDS011;22407;42.820;23.374;2024-01-15T06:08:57;144.40;;;55.30;;
31872;SDS011;22407;42.820;23.374;2024-01-15T06:11:29;152.65;;;57.08;;
31872;SDS011;22407;42.820;23.374;2024-01-15T06:13:55;162.15;;;58.58;;
31872;SDS011;22407;42.820;23.374;2024-01-15T06:16:21;153.80;;;58.80;;
31872;SDS011;22407;42.820;23.374;2024-01-15T06:18:46;151.75;;;58.30;;
31872;SDS011;22407;42.820;23.374;2024-01-15T06:21:12;155.80;;;60.07;;
31872;SDS011;22407;42.820;23.374;2024-01-15T06:23:39;147.27;;;56.50;;
31872;SDS011;22407;42.820;23.374;2024-01-15T06:26:05;175.23;;;68.97;;
31872;SDS011;22407;42.820;23.374;2024-01-15T06:28:30;172.38;;;68.68;;
31872;SDS011;22407;42.820;23.374;2024-01-15T06:30:56;147.63;;;60.73;;
31872;SDS011;22407;42.820;23.374;2024-01-15T06:33:23;144.10;;;54.40;;
31872;SDS011;22407;42.820;23.374;2024-01-15T06:35:49;148.73;;;56.70;;
31872;SDS011;22407;42.820;23.374;2024-01-15T06:38:15;147.98;;;57.30;;
31872;SDS011;22407;42.820;23.374;2024-01-15T06:40:41;155.23;;;63.33;;
31872;SDS011;22407;42.820;23.374;2024-01-15T06:43:13;218.17;;;82.87;;
31872;SDS011;22407;42.820;23.374;2024-01-15T06:45:43;271.27;;;95.68;;
31872;SDS011;22407;42.820;23.374;2024-01-15T06:48:09;223.32;;;83.53;;
31872;SDS011;22407;42.820;23.374;2024-01-15T06:50:34;216.60;;;84.80;;
31872;SDS011;22407;42.820;23.374;2024-01-15T06:53:00;225.20;;;88.10;;
31872;SDS011;22407;42.820;23.374;2024-01-15T06:55:25;197.40;;;79.63;;
31872;SDS011;22407;42.820;23.374;2024-01-15T06:57:51;174.23;;;70.40;;
31872;SDS011;22407;42.820;23.374;2024-01-15T07:00:17;195.25;;;78.53;;
31872;SDS011;22407;42.820;23.374;2024-01-15T07:02:44;187.18;;;74.47;;
31872;SDS011;22407;42.820;23.374;2024-01-15T07:05:10;172.48;;;67.97;;
31872;SDS011;22407;42.820;23.374;2024-01-15T07:07:36;142.27;;;58.17;;
31872;SDS011;22407;42.820;23.374;2024-01-15T07:10:02;132.07;;;55.45;;
31872;SDS011;22407;42.820;23.374;2024-01-15T07:12:29;136.77;;;54.37;;
31872;SDS011;22407;42.820;23.374;2024-01-15T07:14:55;149.98;;;60.25;;
31872;SDS011;22407;42.820;23.374;2024-01-15T07:17:21;145.60;;;59.05;;
31872;SDS011;22407;42.820;23.374;2024-01-15T07:19:47;128.40;;;53.80;;
31872;SDS011;22407;42.820;23.374;2024-01-15T07:22:12;139.02;;;55.00;;
31872;SDS011;22407;42.820;23.374;2024-01-15T07:24:38;175.17;;;65.97;;
31872;SDS011;22407;42.820;23.374;2024-01-15T07:27:04;225.83;;;80.77;;
31872;SDS011;22407;42.820;23.374;2024-01-15T07:29:30;235.75;;;86.72;;
31872;SDS011;22407;42.820;23.374;2024-01-15T07:31:58;181.07;;;72.18;;
31872;SDS011;22407;42.820;23.374;2024-01-15T07:34:24;176.25;;;70.10;;
31872;SDS011;22407;42.820;23.374;2024-01-15T07:36:50;186.70;;;70.97;;
31872;SDS011;22407;42.820;23.374;2024-01-15T07:39:16;167.13;;;65.07;;
31872;SDS011;22407;42.820;23.374;2024-01-15T07:41:42;176.23;;;69.17;;
31872;SDS011;22407;42.820;23.374;2024-01-15T07:44:07;150.25;;;62.33;;
31872;SDS011;22407;42.820;23.374;2024-01-15T07:46:33;145.20;;;60.23;;
31872;SDS011;22407;42.820;23.374;2024-01-15T07:48:58;140.70;;;58.00;;
31872;SDS011;22407;42.820;23.374;2024-01-15T07:51:24;137.67;;;58.50;;
31872;SDS011;22407;42.820;23.374;2024-01-15T07:53:52;143.85;;;59.28;;
31872;SDS011;22407;42.820;23.374;2024-01-15T07:56:18;130.03;;;56.70;;
31872;SDS011;22407;42.820;23.374;2024-01-15T07:58:44;137.57;;;58.63;;
31872;SDS011;22407;42.820;23.374;2024-01-15T08:01:10;146.80;;;58.63;;
31872;SDS011;22407;42.820;23.374;2024-01-15T08:03:35;156.55;;;63.95;;
31872;SDS011;22407;42.820;23.374;2024-01-15T08:06:01;151.53;;;61.13;;
31872;SDS011;22407;42.820;23.374;2024-01-15T08:08:26;141.57;;;57.00;;
31872;SDS011;22407;42.820;23.374;2024-01-15T08:10:52;183.68;;;69.15;;
31872;SDS011;22407;42.820;23.374;2024-01-15T08:13:18;123.90;;;54.30;;
31872;SDS011;22407;42.820;23.374;2024-01-15T08:15:45;155.77;;;66.20;;
31872;SDS011;22407;42.820;23.374;2024-01-15T08:18:10;170.25;;;71.88;;
31872;SDS011;22407;42.820;23.374;2024-01-15T08:20:36;171.00;;;68.60;;
31872;SDS011;22407;42.820;23.374;2024-01-15T08:23:02;146.35;;;58.72;;
31872;SDS011;22407;42.820;23.374;2024-01-15T08:25:30;136.48;;;56.30;;
31872;SDS011;22407;42.820;23.374;2024-01-15T08:27:56;137.17;;;57.13;;
31872;SDS011;22407;42.820;23.374;2024-01-15T08:30:25;134.40;;;55.60;;
31872;SDS011;22407;42.820;23.374;2024-01-15T08:32:55;136.93;;;58.70;;
31872;SDS011;22407;42.820;23.374;2024-01-15T08:35:21;127.70;;;55.97;;
31872;SDS011;22407;42.820;23.374;2024-01-15T08:37:50;119.10;;;52.20;;
31872;SDS011;22407;42.820;23.374;2024-01-15T08:40:16;117.47;;;49.63;;
31872;SDS011;22407;42.820;23.374;2024-01-15T08:42:42;119.00;;;50.72;;
31872;SDS011;22407;42.820;23.374;2024-01-15T08:45:08;135.38;;;55.95;;
31872;SDS011;22407;42.820;23.374;2024-01-15T08:47:34;160.00;;;63.63;;
31872;SDS011;22407;42.820;23.374;2024-01-15T08:50:00;143.47;;;59.30;;
31872;SDS011;22407;42.820;23.374;2024-01-15T08:52:47;147.48;;;60.10;;
31872;SDS011;22407;42.820;23.374;2024-01-15T08:55:13;121.32;;;49.75;;
31872;SDS011;22407;42.820;23.374;2024-01-15T08:57:38;126.90;;;52.70;;
31872;SDS011;22407;42.820;23.374;2024-01-15T09:00:05;109.07;;;45.97;;
31872;SDS011;22407;42.820;23.374;2024-01-15T09:02:33;117.00;;;51.17;;
31872;SDS011;22407;42.820;23.374;2024-01-15T09:05:00;112.25;;;48.55;;
31872;SDS011;22407;42.820;23.374;2024-01-15T09:07:26;195.97;;;86.63;;
31872;SDS011;22407;42.820;23.374;2024-01-15T09:09:52;122.68;;;54.15;;
31872;SDS011;22407;42.820;23.374;2024-01-15T09:12:18;122.47;;;53.83;;
31872;SDS011;22407;42.820;23.374;2024-01-15T09:14:46;146.48;;;60.00;;
31872;SDS011;22407;42.820;23.374;2024-01-15T09:17:12;99.07;;;43.50;;
31872;SDS011;22407;42.820;23.374;2024-01-15T09:19:37;102.82;;;45.55;;
31872;SDS011;22407;42.820;23.374;2024-01-15T09:22:05;97.38;;;44.47;;
31872;SDS011;22407;42.820;23.374;2024-01-15T09:24:30;131.60;;;55.00;;
31872;SDS011;22407;42.820;23.374;2024-01-15T09:26:56;140.95;;;60.55;;
31872;SDS011;22407;42.820;23.374;2024-01-15T09:29:21;205.37;;;80.10;;
31872;SDS011;22407;42.820;23.374;2024-01-15T09:31:49;284.02;;;106.78;;
31872;SDS011;22407;42.820;23.374;2024-01-15T09:34:15;255.20;;;99.00;;
31872;SDS011;22407;42.820;23.374;2024-01-15T09:36:41;249.60;;;96.47;;
31872;SDS011;22407;42.820;23.374;2024-01-15T09:39:08;138.70;;;63.00;;
31872;SDS011;22407;42.820;23.374;2024-01-15T09:41:34;229.70;;;96.15;;
31872;SDS011;22407;42.820;23.374;2024-01-15T09:44:01;158.93;;;75.18;;
31872;SDS011;22407;42.820;23.374;2024-01-15T09:46:28;140.27;;;67.83;;
31872;SDS011;22407;42.820;23.374;2024-01-15T09:48:53;183.68;;;79.20;;
31872;SDS011;22407;42.820;23.374;2024-01-15T09:51:19;141.98;;;65.45;;
31872;SDS011;22407;42.820;23.374;2024-01-15T09:53:46;129.07;;;61.77;;
31872;SDS011;22407;42.820;23.374;2024-01-15T09:56:12;138.70;;;65.47;;
31872;SDS011;22407;42.820;23.374;2024-01-15T09:58:38;142.30;;;65.60;;
31872;SDS011;22407;42.820;23.374;2024-01-15T10:01:04;199.88;;;82.57;;
31872;SDS011;22407;42.820;23.374;2024-01-15T10:03:29;118.80;;;56.07;;
31872;SDS011;22407;42.820;23.374;2024-01-15T10:05:57;118.20;;;57.85;;
31872;SDS011;22407;42.820;23.374;2024-01-15T10:08:24;118.85;;;58.75;;
31872;SDS011;22407;42.820;23.374;2024-01-15T10:10:51;185.02;;;76.85;;
31872;SDS011;22407;42.820;23.374;2024-01-15T10:13:17;237.73;;;88.03;;
31872;SDS011;22407;42.820;23.374;2024-01-15T10:15:45;114.03;;;53.10;;
31872;SDS011;22407;42.820;23.374;2024-01-15T10:18:14;110.03;;;50.90;;
31872;SDS011;22407;42.820;23.374;2024-01-15T10:20:40;103.53;;;49.03;;
31872;SDS011;22407;42.820;23.374;2024-01-15T10:23:05;153.55;;;66.38;;
31872;SDS011;22407;42.820;23.374;2024-01-15T10:25:31;140.17;;;61.20;;
31872;SDS011;22407;42.820;23.374;2024-01-15T10:27:59;115.80;;;53.80;;
31872;SDS011;22407;42.820;23.374;2024-01-15T10:30:26;117.00;;;55.95;;
31872;SDS011;22407;42.820;23.374;2024-01-15T10:32:59;129.00;;;57.92;;
31872;SDS011;22407;42.820;23.374;2024-01-15T10:35:29;105.72;;;49.53;;
31872;SDS011;22407;42.820;23.374;2024-01-15T10:37:56;101.90;;;46.90;;
31872;SDS011;22407;42.820;23.374;2024-01-15T10:40:22;101.00;;;47.95;;
31872;SDS011;22407;42.820;23.374;2024-01-15T10:42:47;173.27;;;78.67;;
31872;SDS011;22407;42.820;23.374;2024-01-15T10:45:13;133.73;;;64.45;;
31872;SDS011;22407;42.820;23.374;2024-01-15T10:47:40;106.90;;;48.60;;
31872;SDS011;22407;42.820;23.374;2024-01-15T10:50:07;134.70;;;52.47;;
31872;SDS011;22407;42.820;23.374;2024-01-15T10:52:37;738.45;;;326.05;;
31872;SDS011;22407;42.820;23.374;2024-01-15T10:55:05;258.20;;;95.60;;
31872;SDS011;22407;42.820;23.374;2024-01-15T10:57:34;130.10;;;49.15;;
31872;SDS011;22407;42.820;23.374;2024-01-15T11:00:00;82.00;;;31.50;;
31872;SDS011;22407;42.820;23.374;2024-01-15T11:02:29;55.93;;;24.43;;
31872;SDS011;22407;42.820;23.374;2024-01-15T11:04:55;200.52;;;65.35;;
31872;SDS011;22407;42.820;23.374;2024-01-15T11:07:21;138.75;;;52.83;;
31872;SDS011;22407;42.820;23.374;2024-01-15T11:09:49;59.77;;;24.80;;
31872;SDS011;22407;42.820;23.374;2024-01-15T11:12:15;50.53;;;22.05;;
31872;SDS011;22407;42.820;23.374;2024-01-15T11:14:46;39.20;;;14.20;;
31872;SDS011;22407;42.820;23.374;2024-01-15T11:17:14;134.55;;;46.10;;
31872;SDS011;22407;42.820;23.374;2024-01-15T11:19:44;99.80;;;34.22;;
31872;SDS011;22407;42.820;23.374;2024-01-15T11:22:47;29.73;;;12.27;;
31872;SDS011;22407;42.820;23.374;2024-01-15T11:25:18;48.80;;;19.35;;
31872;SDS011;22407;42.820;23.374;2024-01-15T11:27:51;42.95;;;19.38;;
31872;SDS011;22407;42.820;23.374;2024-01-15T11:30:18;43.63;;;18.30;;
31872;SDS011;22407;42.820;23.374;2024-01-15T11:32:45;74.00;;;28.70;;
31872;SDS011;22407;42.820;23.374;2024-01-15T11:35:12;57.50;;;24.07;;
31872;SDS011;22407;42.820;23.374;2024-01-15T11:40:23;134.45;;;54.45;;
31872;SDS011;22407;42.820;23.374;2024-01-15T11:43:03;78.10;;;36.58;;
31872;SDS011;22407;42.820;23.374;2024-01-15T11:45:30;61.72;;;28.83;;
31872;SDS011;22407;42.820;23.374;2024-01-15T11:50:21;50.97;;;25.73;;
31872;SDS011;22407;42.820;23.374;2024-01-15T11:52:51;172.30;;;51.73;;
31872;SDS011;22407;42.820;23.374;2024-01-15T11:55:35;46.15;;;19.70;;
31872;SDS011;22407;42.820;23.374;2024-01-15T11:58:07;35.40;;;16.27;;
31872;SDS011;22407;42.820;23.374;2024-01-15T12:00:40;40.37;;;17.60;;
31872;SDS011;22407;42.820;23.374;2024-01-15T12:03:06;42.10;;;19.48;;
31872;SDS011;22407;42.820;23.374;2024-01-15T12:05:36;59.72;;;24.95;;
31872;SDS011;22407;42.820;23.374;2024-01-15T12:08:04;45.37;;;19.63;;
31872;SDS011;22407;42.820;23.374;2024-01-15T12:10:36;49.35;;;19.33;;
31872;SDS011;22407;42.820;23.374;2024-01-15T12:15:36;62.00;;;22.17;;
31872;SDS011;22407;42.820;23.374;2024-01-15T12:18:03;79.93;;;25.60;;
31872;SDS011;22407;42.820;23.374;2024-01-15T12:20:29;64.37;;;24.17;;
31872;SDS011;22407;42.820;23.374;2024-01-15T12:22:56;47.22;;;20.42;;
31872;SDS011;22407;42.820;23.374;2024-01-15T12:25:22;45.20;;;20.92;;
31872;SDS011;22407;42.820;23.374;2024-01-15T12:27:48;47.97;;;21.87;;
31872;SDS011;22407;42.820;23.374;2024-01-15T12:30:15;71.22;;;29.40;;
31872;SDS011;22407;42.820;23.374;2024-01-15T12:32:41;51.08;;;21.73;;
31872;SDS011;22407;42.820;23.374;2024-01-15T12:35:10;51.28;;;23.55;;
31872;SDS011;22407;42.820;23.374;2024-01-15T12:37:37;52.27;;;22.30;;
31872;SDS011;22407;42.820;23.374;2024-01-15T12:40:04;53.67;;;23.77;;
31872;SDS011;22407;42.820;23.374;2024-01-15T12:42:32;62.40;;;26.65;;
31872;SDS011;22407;42.820;23.374;2024-01-15T12:44:58;64.43;;;28.25;;
31872;SDS011;22407;42.820;23.374;2024-01-15T12:47:25;72.15;;;29.17;;
31872;SDS011;22407;42.820;23.374;2024-01-15T12:49:54;332.07;;;100.90;;
31872;SDS011;22407;42.820;23.374;2024-01-15T12:52:20;223.40;;;71.90;;
31872;SDS011;22407;42.820;23.374;2024-01-15T12:54:48;406.73;;;136.27;;
31872;SDS011;22407;42.820;23.374;2024-01-15T12:57:15;327.45;;;101.50;;
31872;SDS011;22407;42.820;23.374;2024-01-15T12:59:42;90.17;;;33.90;;
31872;SDS011;22407;42.820;23.374;2024-01-15T13:02:09;59.28;;;25.08;;
31872;SDS011;22407;42.820;23.374;2024-01-15T13:04:35;80.30;;;30.33;;
31872;SDS011;22407;42.820;23.374;2024-01-15T13:07:01;104.67;;;38.23;;
31872;SDS011;22407;42.820;23.374;2024-01-15T13:09:27;80.25;;;32.95;;
31872;SDS011;22407;42.820;23.374;2024-01-15T13:11:53;83.30;;;33.55;;
31872;SDS011;22407;42.820;23.374;2024-01-15T13:14:19;75.40;;;32.35;;
31872;SDS011;22407;42.820;23.374;2024-01-15T13:16:44;83.47;;;32.33;;
31872;SDS011;22407;42.820;23.374;2024-01-15T13:19:10;88.23;;;32.27;;
31872;SDS011;22407;42.820;23.374;2024-01-15T13:21:41;108.18;;;41.47;;
31872;SDS011;22407;42.820;23.374;2024-01-15T13:24:07;110.63;;;40.65;;
31872;SDS011;22407;42.820;23.374;2024-01-15T13:26:33;101.60;;;40.10;;
31872;SDS011;22407;42.820;23.374;2024-01-15T13:29:00;109.20;;;42.73;;
31872;SDS011;22407;42.820;23.374;2024-01-15T13:31:26;155.60;;;57.05;;
31872;SDS011;22407;42.820;23.374;2024-01-15T13:33:53;157.65;;;64.85;;
31872;SDS011;22407;42.820;23.374;2024-01-15T13:36:18;169.40;;;69.27;;
31872;SDS011;22407;42.820;23.374;2024-01-15T13:38:46;159.20;;;62.15;;
31872;SDS011;22407;42.820;23.374;2024-01-15T13:41:12;97.90;;;41.47;;
31872;SDS011;22407;42.820;23.374;2024-01-15T13:43:37;85.35;;;36.90;;
31872;SDS011;22407;42.820;23.374;2024-01-15T13:46:03;108.13;;;47.80;;
31872;SDS011;22407;42.820;23.374;2024-01-15T13:48:30;92.63;;;42.88;;
31872;SDS011;22407;42.820;23.374;2024-01-15T13:50:57;226.32;;;91.95;;
31872;SDS011;22407;42.820;23.374;2024-01-15T13:53:23;237.07;;;90.00;;
31872;SDS011;22407;42.820;23.374;2024-01-15T13:55:48;106.30;;;45.63;;
31872;SDS011;22407;42.820;23.374;2024-01-15T13:58:14;100.40;;;40.40;;
31872;SDS011;22407;42.820;23.374;2024-01-15T14:00:39;95.68;;;41.92;;
31872;SDS011;22407;42.820;23.374;2024-01-15T14:03:05;101.17;;;44.13;;
31872;SDS011;22407;42.820;23.374;2024-01-15T14:05:31;89.45;;;38.95;;
31872;SDS011;22407;42.820;23.374;2024-01-15T14:07:56;91.83;;;35.93;;
31872;SDS011;22407;42.820;23.374;2024-01-15T14:10:22;105.67;;;39.80;;